Ana Sayfa
METAR-TAF:

METAR-TAF

Havaalanları :

Madrid Barajas Uluslararası Havalimanı

Madrid, İspanya

Enlem: 40-27N, Boylam: 003-33W, yükseklik: 609 m

Güncel hava durumu gözlemi

Rapor saat 11:00 UTC de 29 dakika önce yapıldı.
Rüzgar güney/güneydoğudan 1 kt
Sıcaklık 12°C
Nem 38%
Basınç 1028 hPa
Görüş mesafesi 10 km veya daha fazla
6000 ft yükseklikte az bulutlu

METAR: LEMD 211100Z 15001KT 9999 FEW060 12/M02 Q1028 NOSIG

Saat: 12:29 (11:29 UTC)

Tahmin

Rapor saat 05:00 UTC de 6 saat ve 29 dakika önce yapıldı.
Ayın 21'si saat 06 UTC'den ayın 22'si saat 12 UTC'ye kadar geçerli Tahmin
Rüzgar değişken yönden 5 kt
Görüş mesafesi 10 km veya daha fazla
1500 m altında bulut yok ve kümülonimbus yok

TAF: LEMD 210500Z 2106/2212 VRB05KT CAVOK TX17/2115Z TNM01/2106Z

4.000'den fazla havaalanı için hava durumu gözlemleri ve tahminleri (METAR ve TAF raporları).

Kullanılabilir istasyonlar harita üzerinde sarı ve kırmızı noktalarla gösterilir.

İstasyonun adını görmek için fareyi noktanın üzerinde gezdirin.

Sonrasında hava gözlem ve tahminlerini görmek için tıklayın.

Haritayı değiştirmek için: yaklaştırmak için siyah artı işaretli yeşil düğmeye ve uzaklaştırmak için de eksi işaretli düğmeye hızla tıklayın; bitişik haritalar için yeşil okları kullanın.


METAR-TAF: